sensor_id;sensor_type;location;lat;lon;timestamp;P1;durP1;ratioP1;P2;durP2;ratioP2
7410;SDS011;3747;48.628;9.058;2022-12-26T00:01:50;5.20;;;1.90;;
7410;SDS011;3747;48.628;9.058;2022-12-26T00:04:19;3.00;;;1.90;;
7410;SDS011;3747;48.628;9.058;2022-12-26T00:06:47;2.33;;;1.67;;
7410;SDS011;3747;48.628;9.058;2022-12-26T00:09:14;1.93;;;1.83;;
7410;SDS011;3747;48.628;9.058;2022-12-26T00:11:41;2.60;;;1.60;;
7410;SDS011;3747;48.628;9.058;2022-12-26T00:14:09;2.80;;;1.90;;
7410;SDS011;3747;48.628;9.058;2022-12-26T00:16:38;1.77;;;1.50;;
7410;SDS011;3747;48.628;9.058;2022-12-26T00:19:05;2.90;;;1.90;;
7410;SDS011;3747;48.628;9.058;2022-12-26T00:21:32;1.93;;;1.73;;
7410;SDS011;3747;48.628;9.058;2022-12-26T00:24:00;1.60;;;1.50;;
7410;SDS011;3747;48.628;9.058;2022-12-26T00:26:27;2.50;;;2.00;;
7410;SDS011;3747;48.628;9.058;2022-12-26T00:28:55;1.77;;;1.67;;
7410;SDS011;3747;48.628;9.058;2022-12-26T00:31:22;2.00;;;1.80;;
7410;SDS011;3747;48.628;9.058;2022-12-26T00:33:50;4.50;;;2.00;;
7410;SDS011;3747;48.628;9.058;2022-12-26T00:36:18;1.77;;;1.67;;
7410;SDS011;3747;48.628;9.058;2022-12-26T00:38:46;2.97;;;1.70;;
7410;SDS011;3747;48.628;9.058;2022-12-26T00:41:15;2.03;;;1.90;;
7410;SDS011;3747;48.628;9.058;2022-12-26T00:43:43;1.73;;;1.60;;
7410;SDS011;3747;48.628;9.058;2022-12-26T00:46:10;1.90;;;1.80;;
7410;SDS011;3747;48.628;9.058;2022-12-26T00:48:37;1.80;;;1.70;;
7410;SDS011;3747;48.628;9.058;2022-12-26T00:51:04;2.30;;;1.83;;
7410;SDS011;3747;48.628;9.058;2022-12-26T00:53:31;2.23;;;2.00;;
7410;SDS011;3747;48.628;9.058;2022-12-26T00:55:58;2.20;;;2.00;;
7410;SDS011;3747;48.628;9.058;2022-12-26T00:58:26;2.37;;;1.67;;
7410;SDS011;3747;48.628;9.058;2022-12-26T01:00:53;1.70;;;1.60;;
7410;SDS011;3747;48.628;9.058;2022-12-26T01:03:20;2.43;;;2.23;;
7410;SDS011;3747;48.628;9.058;2022-12-26T01:05:48;1.80;;;1.20;;
7410;SDS011;3747;48.628;9.058;2022-12-26T01:08:16;2.03;;;1.50;;
7410;SDS011;3747;48.628;9.058;2022-12-26T01:10:45;3.70;;;1.97;;
7410;SDS011;3747;48.628;9.058;2022-12-26T01:13:12;2.00;;;1.60;;
7410;SDS011;3747;48.628;9.058;2022-12-26T01:15:42;2.63;;;1.80;;
7410;SDS011;3747;48.628;9.058;2022-12-26T01:18:13;1.87;;;1.40;;
7410;SDS011;3747;48.628;9.058;2022-12-26T01:20:40;2.30;;;1.43;;
7410;SDS011;3747;48.628;9.058;2022-12-26T01:23:06;1.90;;;1.70;;
7410;SDS011;3747;48.628;9.058;2022-12-26T01:25:33;2.20;;;1.77;;
7410;SDS011;3747;48.628;9.058;2022-12-26T01:28:00;1.67;;;1.57;;
7410;SDS011;3747;48.628;9.058;2022-12-26T01:30:26;1.40;;;1.30;;
7410;SDS011;3747;48.628;9.058;2022-12-26T01:32:54;1.60;;;1.50;;
7410;SDS011;3747;48.628;9.058;2022-12-26T01:35:21;1.63;;;1.53;;
7410;SDS011;3747;48.628;9.058;2022-12-26T01:37:48;2.90;;;1.60;;
7410;SDS011;3747;48.628;9.058;2022-12-26T01:40:15;2.13;;;1.93;;
7410;SDS011;3747;48.628;9.058;2022-12-26T01:42:42;2.93;;;1.50;;
7410;SDS011;3747;48.628;9.058;2022-12-26T01:45:16;2.40;;;1.60;;
7410;SDS011;3747;48.628;9.058;2022-12-26T01:47:48;1.50;;;1.40;;
7410;SDS011;3747;48.628;9.058;2022-12-26T01:50:30;2.63;;;1.93;;
7410;SDS011;3747;48.628;9.058;2022-12-26T01:53:07;1.73;;;1.60;;
7410;SDS011;3747;48.628;9.058;2022-12-26T01:55:39;2.90;;;1.43;;
7410;SDS011;3747;48.628;9.058;2022-12-26T01:58:10;2.50;;;1.80;;
7410;SDS011;3747;48.628;9.058;2022-12-26T02:00:40;1.47;;;1.37;;
7410;SDS011;3747;48.628;9.058;2022-12-26T02:03:07;1.57;;;1.47;;
7410;SDS011;3747;48.628;9.058;2022-12-26T02:05:54;1.97;;;1.60;;
7410;SDS011;3747;48.628;9.058;2022-12-26T02:08:23;1.87;;;1.53;;
7410;SDS011;3747;48.628;9.058;2022-12-26T02:10:55;1.60;;;1.47;;
7410;SDS011;3747;48.628;9.058;2022-12-26T02:13:26;2.70;;;1.50;;
7410;SDS011;3747;48.628;9.058;2022-12-26T02:15:55;2.00;;;1.80;;
7410;SDS011;3747;48.628;9.058;2022-12-26T02:18:22;1.87;;;1.70;;
7410;SDS011;3747;48.628;9.058;2022-12-26T02:20:52;3.20;;;1.67;;
7410;SDS011;3747;48.628;9.058;2022-12-26T02:23:46;4.30;;;1.63;;
7410;SDS011;3747;48.628;9.058;2022-12-26T02:32:34;2.13;;;1.70;;
7410;SDS011;3747;48.628;9.058;2022-12-26T02:35:23;3.03;;;1.87;;
7410;SDS011;3747;48.628;9.058;2022-12-26T02:38:00;1.70;;;1.60;;
7410;SDS011;3747;48.628;9.058;2022-12-26T02:40:40;1.93;;;1.73;;
7410;SDS011;3747;48.628;9.058;2022-12-26T02:43:15;2.63;;;1.60;;
7410;SDS011;3747;48.628;9.058;2022-12-26T02:45:49;2.50;;;2.00;;
7410;SDS011;3747;48.628;9.058;2022-12-26T02:48:43;3.40;;;1.60;;
7410;SDS011;3747;48.628;9.058;2022-12-26T02:51:19;1.87;;;1.70;;
7410;SDS011;3747;48.628;9.058;2022-12-26T02:54:17;1.53;;;1.43;;
7410;SDS011;3747;48.628;9.058;2022-12-26T02:57:10;1.60;;;1.40;;
7410;SDS011;3747;48.628;9.058;2022-12-26T03:00:00;2.90;;;1.80;;
7410;SDS011;3747;48.628;9.058;2022-12-26T03:02:49;3.43;;;1.67;;
7410;SDS011;3747;48.628;9.058;2022-12-26T03:05:38;2.47;;;1.70;;
7410;SDS011;3747;48.628;9.058;2022-12-26T03:08:27;3.90;;;1.60;;
7410;SDS011;3747;48.628;9.058;2022-12-26T03:11:14;2.97;;;1.77;;
7410;SDS011;3747;48.628;9.058;2022-12-26T03:14:02;1.40;;;1.33;;
7410;SDS011;3747;48.628;9.058;2022-12-26T03:16:36;2.23;;;1.67;;
7410;SDS011;3747;48.628;9.058;2022-12-26T03:19:20;1.73;;;1.63;;
7410;SDS011;3747;48.628;9.058;2022-12-26T03:21:54;2.37;;;2.07;;
7410;SDS011;3747;48.628;9.058;2022-12-26T03:24:22;3.63;;;1.70;;
7410;SDS011;3747;48.628;9.058;2022-12-26T03:26:50;1.70;;;1.60;;
7410;SDS011;3747;48.628;9.058;2022-12-26T03:29:19;2.17;;;1.57;;
7410;SDS011;3747;48.628;9.058;2022-12-26T03:32:06;1.80;;;1.70;;
7410;SDS011;3747;48.628;9.058;2022-12-26T03:34:36;2.07;;;1.90;;
7410;SDS011;3747;48.628;9.058;2022-12-26T03:40:10;1.60;;;1.50;;
7410;SDS011;3747;48.628;9.058;2022-12-26T03:43:04;1.93;;;1.77;;
7410;SDS011;3747;48.628;9.058;2022-12-26T03:45:56;2.70;;;2.50;;
7410;SDS011;3747;48.628;9.058;2022-12-26T03:48:51;2.43;;;1.90;;
7410;SDS011;3747;48.628;9.058;2022-12-26T03:51:41;3.13;;;2.00;;
7410;SDS011;3747;48.628;9.058;2022-12-26T03:54:34;1.83;;;1.63;;
7410;SDS011;3747;48.628;9.058;2022-12-26T03:57:36;2.40;;;1.60;;
7410;SDS011;3747;48.628;9.058;2022-12-26T04:00:27;1.90;;;1.53;;
7410;SDS011;3747;48.628;9.058;2022-12-26T04:03:13;1.97;;;1.77;;
7410;SDS011;3747;48.628;9.058;2022-12-26T04:06:01;2.43;;;1.60;;
7410;SDS011;3747;48.628;9.058;2022-12-26T04:08:48;2.90;;;2.60;;
7410;SDS011;3747;48.628;9.058;2022-12-26T04:11:37;2.30;;;1.53;;
7410;SDS011;3747;48.628;9.058;2022-12-26T04:14:27;1.97;;;1.40;;
7410;SDS011;3747;48.628;9.058;2022-12-26T04:17:21;2.87;;;1.70;;
7410;SDS011;3747;48.628;9.058;2022-12-26T04:20:12;2.90;;;1.67;;
7410;SDS011;3747;48.628;9.058;2022-12-26T04:22:44;2.60;;;1.90;;
7410;SDS011;3747;48.628;9.058;2022-12-26T04:25:34;1.73;;;1.60;;
7410;SDS011;3747;48.628;9.058;2022-12-26T04:28:23;1.80;;;1.70;;
7410;SDS011;3747;48.628;9.058;2022-12-26T04:31:09;2.23;;;1.70;;
7410;SDS011;3747;48.628;9.058;2022-12-26T04:33:57;1.50;;;1.40;;
7410;SDS011;3747;48.628;9.058;2022-12-26T04:36:45;1.90;;;1.60;;
7410;SDS011;3747;48.628;9.058;2022-12-26T04:39:34;2.80;;;1.80;;
7410;SDS011;3747;48.628;9.058;2022-12-26T04:42:20;1.87;;;1.77;;
7410;SDS011;3747;48.628;9.058;2022-12-26T04:45:08;2.67;;;1.90;;
7410;SDS011;3747;48.628;9.058;2022-12-26T04:47:36;1.60;;;1.50;;
7410;SDS011;3747;48.628;9.058;2022-12-26T04:50:23;3.00;;;1.80;;
7410;SDS011;3747;48.628;9.058;2022-12-26T04:52:49;1.60;;;1.50;;
7410;SDS011;3747;48.628;9.058;2022-12-26T04:55:23;2.00;;;1.87;;
7410;SDS011;3747;48.628;9.058;2022-12-26T04:57:51;3.87;;;1.50;;
7410;SDS011;3747;48.628;9.058;2022-12-26T05:00:19;2.13;;;1.60;;
7410;SDS011;3747;48.628;9.058;2022-12-26T05:02:48;1.67;;;1.57;;
7410;SDS011;3747;48.628;9.058;2022-12-26T05:05:33;1.57;;;1.47;;
7410;SDS011;3747;48.628;9.058;2022-12-26T05:08:32;5.80;;;1.80;;
7410;SDS011;3747;48.628;9.058;2022-12-26T05:11:19;1.43;;;1.27;;
7410;SDS011;3747;48.628;9.058;2022-12-26T05:13:46;1.57;;;1.47;;
7410;SDS011;3747;48.628;9.058;2022-12-26T05:16:14;2.17;;;1.97;;
7410;SDS011;3747;48.628;9.058;2022-12-26T05:18:57;1.50;;;1.40;;
7410;SDS011;3747;48.628;9.058;2022-12-26T05:21:42;3.00;;;1.53;;
7410;SDS011;3747;48.628;9.058;2022-12-26T05:24:26;3.03;;;1.60;;
7410;SDS011;3747;48.628;9.058;2022-12-26T05:27:15;2.67;;;1.70;;
7410;SDS011;3747;48.628;9.058;2022-12-26T05:29:59;2.03;;;1.60;;
7410;SDS011;3747;48.628;9.058;2022-12-26T05:32:28;2.13;;;1.80;;
7410;SDS011;3747;48.628;9.058;2022-12-26T05:35:12;1.60;;;1.50;;
7410;SDS011;3747;48.628;9.058;2022-12-26T05:37:39;1.80;;;1.70;;
7410;SDS011;3747;48.628;9.058;2022-12-26T05:40:06;2.20;;;1.50;;
7410;SDS011;3747;48.628;9.058;2022-12-26T05:42:33;1.60;;;1.50;;
7410;SDS011;3747;48.628;9.058;2022-12-26T05:45:00;2.00;;;1.80;;
7410;SDS011;3747;48.628;9.058;2022-12-26T05:47:28;2.87;;;1.60;;
7410;SDS011;3747;48.628;9.058;2022-12-26T05:49:55;1.87;;;1.63;;
7410;SDS011;3747;48.628;9.058;2022-12-26T05:52:21;1.67;;;1.47;;
7410;SDS011;3747;48.628;9.058;2022-12-26T05:54:48;1.73;;;1.63;;
7410;SDS011;3747;48.628;9.058;2022-12-26T05:57:15;1.70;;;1.60;;
7410;SDS011;3747;48.628;9.058;2022-12-26T05:59:41;1.53;;;1.33;;
7410;SDS011;3747;48.628;9.058;2022-12-26T06:02:08;1.83;;;1.73;;
7410;SDS011;3747;48.628;9.058;2022-12-26T06:04:36;3.33;;;1.57;;
7410;SDS011;3747;48.628;9.058;2022-12-26T06:07:03;1.90;;;1.53;;
7410;SDS011;3747;48.628;9.058;2022-12-26T06:09:29;2.13;;;2.03;;
7410;SDS011;3747;48.628;9.058;2022-12-26T06:11:56;2.80;;;1.33;;
7410;SDS011;3747;48.628;9.058;2022-12-26T06:14:23;2.37;;;1.50;;
7410;SDS011;3747;48.628;9.058;2022-12-26T06:16:50;1.60;;;1.50;;
7410;SDS011;3747;48.628;9.058;2022-12-26T06:19:16;2.10;;;1.67;;
7410;SDS011;3747;48.628;9.058;2022-12-26T06:21:44;3.03;;;1.70;;
7410;SDS011;3747;48.628;9.058;2022-12-26T06:24:11;2.23;;;2.00;;
7410;SDS011;3747;48.628;9.058;2022-12-26T06:26:39;1.93;;;1.83;;
7410;SDS011;3747;48.628;9.058;2022-12-26T06:29:06;4.90;;;2.73;;
7410;SDS011;3747;48.628;9.058;2022-12-26T06:31:33;3.13;;;2.10;;
7410;SDS011;3747;48.628;9.058;2022-12-26T06:34:00;3.17;;;2.53;;
7410;SDS011;3747;48.628;9.058;2022-12-26T06:36:27;3.67;;;2.60;;
7410;SDS011;3747;48.628;9.058;2022-12-26T06:38:55;2.47;;;2.20;;
7410;SDS011;3747;48.628;9.058;2022-12-26T06:41:23;4.83;;;1.93;;
7410;SDS011;3747;48.628;9.058;2022-12-26T06:43:51;3.70;;;1.90;;
7410;SDS011;3747;48.628;9.058;2022-12-26T06:46:18;1.70;;;1.60;;
7410;SDS011;3747;48.628;9.058;2022-12-26T06:48:46;2.40;;;2.03;;
7410;SDS011;3747;48.628;9.058;2022-12-26T06:51:14;1.53;;;1.37;;
7410;SDS011;3747;48.628;9.058;2022-12-26T06:53:42;2.33;;;2.10;;
7410;SDS011;3747;48.628;9.058;2022-12-26T06:56:11;1.53;;;1.43;;
7410;SDS011;3747;48.628;9.058;2022-12-26T06:58:39;2.17;;;1.90;;
7410;SDS011;3747;48.628;9.058;2022-12-26T07:01:07;2.40;;;1.70;;
7410;SDS011;3747;48.628;9.058;2022-12-26T07:03:35;1.80;;;1.70;;
7410;SDS011;3747;48.628;9.058;2022-12-26T07:06:03;2.90;;;1.80;;
7410;SDS011;3747;48.628;9.058;2022-12-26T07:08:31;3.83;;;1.80;;
7410;SDS011;3747;48.628;9.058;2022-12-26T07:10:58;2.37;;;1.70;;
7410;SDS011;3747;48.628;9.058;2022-12-26T07:13:26;1.83;;;1.73;;
7410;SDS011;3747;48.628;9.058;2022-12-26T07:15:53;1.63;;;1.53;;
7410;SDS011;3747;48.628;9.058;2022-12-26T07:18:23;3.83;;;2.33;;
7410;SDS011;3747;48.628;9.058;2022-12-26T07:20:50;2.00;;;1.80;;
7410;SDS011;3747;48.628;9.058;2022-12-26T07:23:16;1.73;;;1.40;;
7410;SDS011;3747;48.628;9.058;2022-12-26T07:25:45;2.07;;;1.90;;
7410;SDS011;3747;48.628;9.058;2022-12-26T07:28:12;2.37;;;1.97;;
7410;SDS011;3747;48.628;9.058;2022-12-26T07:30:43;1.77;;;1.67;;
7410;SDS011;3747;48.628;9.058;2022-12-26T07:33:11;2.43;;;1.90;;
7410;SDS011;3747;48.628;9.058;2022-12-26T07:35:38;1.77;;;1.67;;
7410;SDS011;3747;48.628;9.058;2022-12-26T07:38:05;2.30;;;2.00;;
7410;SDS011;3747;48.628;9.058;2022-12-26T07:40:32;2.00;;;1.83;;
7410;SDS011;3747;48.628;9.058;2022-12-26T07:42:58;2.20;;;2.00;;
7410;SDS011;3747;48.628;9.058;2022-12-26T07:45:25;2.37;;;1.87;;
7410;SDS011;3747;48.628;9.058;2022-12-26T07:47:53;3.80;;;1.83;;
7410;SDS011;3747;48.628;9.058;2022-12-26T07:50:20;2.47;;;2.00;;
7410;SDS011;3747;48.628;9.058;2022-12-26T07:52:47;1.83;;;1.73;;
7410;SDS011;3747;48.628;9.058;2022-12-26T07:55:14;5.07;;;2.33;;
7410;SDS011;3747;48.628;9.058;2022-12-26T07:57:41;2.43;;;2.23;;
7410;SDS011;3747;48.628;9.058;2022-12-26T08:00:08;2.10;;;1.80;;
7410;SDS011;3747;48.628;9.058;2022-12-26T08:02:36;2.30;;;2.10;;
7410;SDS011;3747;48.628;9.058;2022-12-26T08:05:04;2.07;;;1.90;;
7410;SDS011;3747;48.628;9.058;2022-12-26T08:07:31;5.33;;;2.43;;
7410;SDS011;3747;48.628;9.058;2022-12-26T08:09:58;2.70;;;2.40;;
7410;SDS011;3747;48.628;9.058;2022-12-26T08:12:24;2.50;;;2.30;;
7410;SDS011;3747;48.628;9.058;2022-12-26T08:14:51;2.60;;;2.40;;
7410;SDS011;3747;48.628;9.058;2022-12-26T08:17:18;4.57;;;3.03;;
7410;SDS011;3747;48.628;9.058;2022-12-26T08:19:44;5.80;;;4.63;;
7410;SDS011;3747;48.628;9.058;2022-12-26T08:22:12;8.00;;;5.43;;
7410;SDS011;3747;48.628;9.058;2022-12-26T08:24:39;8.23;;;5.73;;
7410;SDS011;3747;48.628;9.058;2022-12-26T08:27:06;6.17;;;3.53;;
7410;SDS011;3747;48.628;9.058;2022-12-26T08:29:32;6.10;;;3.90;;
7410;SDS011;3747;48.628;9.058;2022-12-26T08:31:59;3.47;;;3.10;;
7410;SDS011;3747;48.628;9.058;2022-12-26T08:34:30;2.87;;;2.67;;
7410;SDS011;3747;48.628;9.058;2022-12-26T08:36:57;3.63;;;2.53;;
7410;SDS011;3747;48.628;9.058;2022-12-26T08:39:25;2.83;;;2.43;;
7410;SDS011;3747;48.628;9.058;2022-12-26T08:41:52;3.07;;;2.40;;
7410;SDS011;3747;48.628;9.058;2022-12-26T08:44:19;3.53;;;2.23;;
7410;SDS011;3747;48.628;9.058;2022-12-26T08:46:45;5.33;;;3.10;;
7410;SDS011;3747;48.628;9.058;2022-12-26T08:49:12;3.93;;;3.13;;
7410;SDS011;3747;48.628;9.058;2022-12-26T08:51:39;3.73;;;3.03;;
7410;SDS011;3747;48.628;9.058;2022-12-26T08:54:05;5.13;;;3.37;;
7410;SDS011;3747;48.628;9.058;2022-12-26T08:56:33;3.50;;;2.30;;
7410;SDS011;3747;48.628;9.058;2022-12-26T08:59:00;3.90;;;2.93;;
7410;SDS011;3747;48.628;9.058;2022-12-26T09:01:27;3.00;;;2.70;;
7410;SDS011;3747;48.628;9.058;2022-12-26T09:03:59;3.27;;;2.77;;
7410;SDS011;3747;48.628;9.058;2022-12-26T09:06:27;3.10;;;2.80;;
7410;SDS011;3747;48.628;9.058;2022-12-26T09:08:57;3.70;;;3.03;;
7410;SDS011;3747;48.628;9.058;2022-12-26T09:11:25;2.40;;;2.20;;
7410;SDS011;3747;48.628;9.058;2022-12-26T09:13:54;3.23;;;2.30;;
7410;SDS011;3747;48.628;9.058;2022-12-26T09:16:22;3.10;;;2.90;;
7410;SDS011;3747;48.628;9.058;2022-12-26T09:18:52;3.90;;;3.57;;
7410;SDS011;3747;48.628;9.058;2022-12-26T09:21:20;4.40;;;3.30;;
7410;SDS011;3747;48.628;9.058;2022-12-26T09:23:47;3.30;;;3.00;;
7410;SDS011;3747;48.628;9.058;2022-12-26T09:26:16;4.30;;;3.57;;
7410;SDS011;3747;48.628;9.058;2022-12-26T09:28:44;4.80;;;3.10;;
7410;SDS011;3747;48.628;9.058;2022-12-26T09:31:14;4.03;;;3.63;;
7410;SDS011;3747;48.628;9.058;2022-12-26T09:33:41;4.57;;;3.83;;
7410;SDS011;3747;48.628;9.058;2022-12-26T09:36:09;4.93;;;4.00;;
7410;SDS011;3747;48.628;9.058;2022-12-26T09:38:38;6.50;;;4.23;;
7410;SDS011;3747;48.628;9.058;2022-12-26T09:41:08;7.43;;;3.93;;
7410;SDS011;3747;48.628;9.058;2022-12-26T09:43:52;5.03;;;4.13;;
7410;SDS011;3747;48.628;9.058;2022-12-26T09:46:30;4.50;;;4.10;;
7410;SDS011;3747;48.628;9.058;2022-12-26T09:49:00;5.53;;;4.30;;
7410;SDS011;3747;48.628;9.058;2022-12-26T09:51:30;5.20;;;4.10;;
7410;SDS011;3747;48.628;9.058;2022-12-26T09:53:59;8.87;;;4.80;;
7410;SDS011;3747;48.628;9.058;2022-12-26T09:56:30;5.97;;;4.53;;
7410;SDS011;3747;48.628;9.058;2022-12-26T09:59:05;7.53;;;5.53;;
7410;SDS011;3747;48.628;9.058;2022-12-26T10:01:38;7.23;;;4.83;;
7410;SDS011;3747;48.628;9.058;2022-12-26T10:04:07;6.63;;;4.90;;
7410;SDS011;3747;48.628;9.058;2022-12-26T10:06:40;5.83;;;4.50;;
7410;SDS011;3747;48.628;9.058;2022-12-26T10:09:17;8.13;;;5.50;;
7410;SDS011;3747;48.628;9.058;2022-12-26T10:15:02;10.57;;;5.23;;
7410;SDS011;3747;48.628;9.058;2022-12-26T10:17:39;8.03;;;5.70;;
7410;SDS011;3747;48.628;9.058;2022-12-26T10:20:15;7.13;;;5.80;;
7410;SDS011;3747;48.628;9.058;2022-12-26T10:22:57;8.30;;;5.10;;
7410;SDS011;3747;48.628;9.058;2022-12-26T10:25:37;10.60;;;6.20;;
7410;SDS011;3747;48.628;9.058;2022-12-26T10:28:09;6.53;;;5.13;;
7410;SDS011;3747;48.628;9.058;2022-12-26T10:30:42;6.80;;;5.57;;
7410;SDS011;3747;48.628;9.058;2022-12-26T10:33:32;8.83;;;5.20;;
7410;SDS011;3747;48.628;9.058;2022-12-26T10:36:02;7.43;;;4.67;;
7410;SDS011;3747;48.628;9.058;2022-12-26T10:38:30;6.30;;;5.67;;
7410;SDS011;3747;48.628;9.058;2022-12-26T10:41:02;8.03;;;5.03;;
7410;SDS011;3747;48.628;9.058;2022-12-26T10:43:33;7.27;;;5.33;;
7410;SDS011;3747;48.628;9.058;2022-12-26T10:46:08;9.67;;;5.27;;
7410;SDS011;3747;48.628;9.058;2022-12-26T10:48:57;9.80;;;5.73;;
7410;SDS011;3747;48.628;9.058;2022-12-26T10:51:24;11.87;;;5.63;;
7410;SDS011;3747;48.628;9.058;2022-12-26T10:54:02;8.30;;;4.50;;
7410;SDS011;3747;48.628;9.058;2022-12-26T10:56:35;3.83;;;2.80;;
7410;SDS011;3747;48.628;9.058;2022-12-26T10:59:03;3.53;;;2.50;;
7410;SDS011;3747;48.628;9.058;2022-12-26T11:01:31;2.77;;;2.10;;
7410;SDS011;3747;48.628;9.058;2022-12-26T11:04:01;3.43;;;1.77;;
7410;SDS011;3747;48.628;9.058;2022-12-26T11:06:30;2.90;;;2.30;;
7410;SDS011;3747;48.628;9.058;2022-12-26T11:11:57;4.93;;;3.10;;
7410;SDS011;3747;48.628;9.058;2022-12-26T11:14:26;3.90;;;3.20;;
7410;SDS011;3747;48.628;9.058;2022-12-26T11:16:56;3.87;;;3.17;;
7410;SDS011;3747;48.628;9.058;2022-12-26T11:19:26;4.60;;;3.23;;
7410;SDS011;3747;48.628;9.058;2022-12-26T11:21:55;4.27;;;3.33;;
7410;SDS011;3747;48.628;9.058;2022-12-26T11:25:10;9.80;;;6.77;;
7410;SDS011;3747;48.628;9.058;2022-12-26T11:27:41;3.37;;;2.47;;
7410;SDS011;3747;48.628;9.058;2022-12-26T11:30:18;2.30;;;2.10;;
7410;SDS011;3747;48.628;9.058;2022-12-26T11:32:47;1.83;;;1.73;;
7410;SDS011;3747;48.628;9.058;2022-12-26T11:35:19;2.03;;;1.83;;
7410;SDS011;3747;48.628;9.058;2022-12-26T11:37:50;4.27;;;1.90;;
7410;SDS011;3747;48.628;9.058;2022-12-26T11:40:20;2.87;;;2.20;;
7410;SDS011;3747;48.628;9.058;2022-12-26T11:42:53;3.10;;;1.80;;
7410;SDS011;3747;48.628;9.058;2022-12-26T11:45:22;2.03;;;1.87;;
7410;SDS011;3747;48.628;9.058;2022-12-26T11:47:51;2.20;;;1.70;;
7410;SDS011;3747;48.628;9.058;2022-12-26T11:50:21;2.50;;;2.23;;
7410;SDS011;3747;48.628;9.058;2022-12-26T11:52:51;3.00;;;2.00;;
7410;SDS011;3747;48.628;9.058;2022-12-26T11:55:30;2.20;;;2.00;;
7410;SDS011;3747;48.628;9.058;2022-12-26T11:57:58;4.40;;;3.47;;
7410;SDS011;3747;48.628;9.058;2022-12-26T12:00:30;2.83;;;2.10;;
7410;SDS011;3747;48.628;9.058;2022-12-26T12:02:58;2.13;;;1.97;;
7410;SDS011;3747;48.628;9.058;2022-12-26T12:05:31;1.47;;;1.37;;
7410;SDS011;3747;48.628;9.058;2022-12-26T12:08:08;2.00;;;1.80;;
7410;SDS011;3747;48.628;9.058;2022-12-26T12:10:59;1.50;;;1.30;;
7410;SDS011;3747;48.628;9.058;2022-12-26T12:16:58;1.20;;;1.10;;
7410;SDS011;3747;48.628;9.058;2022-12-26T12:19:36;1.10;;;1.00;;
7410;SDS011;3747;48.628;9.058;2022-12-26T12:22:12;1.53;;;1.20;;
7410;SDS011;3747;48.628;9.058;2022-12-26T12:24:54;0.83;;;0.83;;
7410;SDS011;3747;48.628;9.058;2022-12-26T12:27:30;0.97;;;0.97;;
7410;SDS011;3747;48.628;9.058;2022-12-26T12:32:54;1.10;;;1.00;;
7410;SDS011;3747;48.628;9.058;2022-12-26T12:35:37;1.87;;;1.00;;
7410;SDS011;3747;48.628;9.058;2022-12-26T12:38:23;0.90;;;0.77;;
7410;SDS011;3747;48.628;9.058;2022-12-26T12:40:57;0.80;;;0.70;;
7410;SDS011;3747;48.628;9.058;2022-12-26T12:43:41;0.60;;;0.60;;
7410;SDS011;3747;48.628;9.058;2022-12-26T12:46:22;0.70;;;0.70;;
7410;SDS011;3747;48.628;9.058;2022-12-26T12:49:07;0.60;;;0.60;;
7410;SDS011;3747;48.628;9.058;2022-12-26T12:51:45;0.50;;;0.50;;
7410;SDS011;3747;48.628;9.058;2022-12-26T12:57:39;0.60;;;0.50;;
7410;SDS011;3747;48.628;9.058;2022-12-26T13:00:11;0.60;;;0.60;;
7410;SDS011;3747;48.628;9.058;2022-12-26T13:02:41;0.80;;;0.63;;
7410;SDS011;3747;48.628;9.058;2022-12-26T13:05:16;1.47;;;0.67;;
7410;SDS011;3747;48.628;9.058;2022-12-26T13:08:03;1.00;;;0.70;;
7410;SDS011;3747;48.628;9.058;2022-12-26T13:10:33;1.57;;;0.70;;
7410;SDS011;3747;48.628;9.058;2022-12-26T13:13:10;2.00;;;0.80;;
7410;SDS011;3747;48.628;9.058;2022-12-26T13:15:42;1.00;;;0.90;;
7410;SDS011;3747;48.628;9.058;2022-12-26T13:18:14;1.10;;;0.87;;
7410;SDS011;3747;48.628;9.058;2022-12-26T13:20:44;0.60;;;0.60;;
7410;SDS011;3747;48.628;9.058;2022-12-26T13:23:15;2.53;;;1.30;;
7410;SDS011;3747;48.628;9.058;2022-12-26T13:26:06;1.30;;;0.80;;
7410;SDS011;3747;48.628;9.058;2022-12-26T13:28:39;1.23;;;1.10;;
7410;SDS011;3747;48.628;9.058;2022-12-26T13:31:15;0.90;;;0.90;;
7410;SDS011;3747;48.628;9.058;2022-12-26T13:33:42;0.70;;;0.70;;
7410;SDS011;3747;48.628;9.058;2022-12-26T13:36:09;1.20;;;1.10;;
7410;SDS011;3747;48.628;9.058;2022-12-26T13:41:58;1.10;;;1.00;;
7410;SDS011;3747;48.628;9.058;2022-12-26T13:44:45;0.90;;;0.90;;
7410;SDS011;3747;48.628;9.058;2022-12-26T13:53:21;1.30;;;0.90;;
7410;SDS011;3747;48.628;9.058;2022-12-26T13:58:27;1.07;;;0.80;;
7410;SDS011;3747;48.628;9.058;2022-12-26T14:01:03;1.40;;;1.13;;
7410;SDS011;3747;48.628;9.058;2022-12-26T14:03:43;1.00;;;0.90;;
7410;SDS011;3747;48.628;9.058;2022-12-26T14:09:18;0.60;;;0.60;;
7410;SDS011;3747;48.628;9.058;2022-12-26T14:11:59;2.40;;;0.77;;
7410;SDS011;3747;48.628;9.058;2022-12-26T14:14:39;2.07;;;1.57;;
7410;SDS011;3747;48.628;9.058;2022-12-26T14:17:20;1.40;;;0.80;;
7410;SDS011;3747;48.628;9.058;2022-12-26T14:20:07;0.80;;;0.80;;
7410;SDS011;3747;48.628;9.058;2022-12-26T14:25:21;2.37;;;1.00;;
7410;SDS011;3747;48.628;9.058;2022-12-26T14:27:53;1.60;;;1.50;;
7410;SDS011;3747;48.628;9.058;2022-12-26T14:30:26;1.47;;;1.37;;
7410;SDS011;3747;48.628;9.058;2022-12-26T14:33:02;1.10;;;1.00;;
7410;SDS011;3747;48.628;9.058;2022-12-26T14:36:02;1.30;;;1.00;;
7410;SDS011;3747;48.628;9.058;2022-12-26T14:38:46;1.30;;;0.70;;
7410;SDS011;3747;48.628;9.058;2022-12-26T14:41:20;1.67;;;0.60;;
7410;SDS011;3747;48.628;9.058;2022-12-26T14:44:09;1.43;;;0.70;;
7410;SDS011;3747;48.628;9.058;2022-12-26T14:46:57;0.40;;;0.40;;
7410;SDS011;3747;48.628;9.058;2022-12-26T14:49:36;1.10;;;0.57;;
7410;SDS011;3747;48.628;9.058;2022-12-26T14:58:23;0.90;;;0.80;;
7410;SDS011;3747;48.628;9.058;2022-12-26T15:04:21;0.80;;;0.80;;
7410;SDS011;3747;48.628;9.058;2022-12-26T15:07:05;0.50;;;0.50;;
7410;SDS011;3747;48.628;9.058;2022-12-26T15:10:28;2.30;;;0.60;;
7410;SDS011;3747;48.628;9.058;2022-12-26T15:13:32;1.03;;;0.60;;
7410;SDS011;3747;48.628;9.058;2022-12-26T15:16:19;0.57;;;0.57;;
7410;SDS011;3747;48.628;9.058;2022-12-26T15:34:06;0.60;;;0.60;;
7410;SDS011;3747;48.628;9.058;2022-12-26T15:37:13;0.53;;;0.53;;
7410;SDS011;3747;48.628;9.058;2022-12-26T15:40:04;0.40;;;0.40;;
7410;SDS011;3747;48.628;9.058;2022-12-26T15:42:41;0.60;;;0.57;;
7410;SDS011;3747;48.628;9.058;2022-12-26T15:45:19;0.50;;;0.50;;
7410;SDS011;3747;48.628;9.058;2022-12-26T15:48:00;1.47;;;0.60;;
7410;SDS011;3747;48.628;9.058;2022-12-26T15:50:37;1.03;;;0.90;;
7410;SDS011;3747;48.628;9.058;2022-12-26T15:53:19;0.70;;;0.60;;
7410;SDS011;3747;48.628;9.058;2022-12-26T15:56:00;0.90;;;0.70;;
7410;SDS011;3747;48.628;9.058;2022-12-26T15:58:48;1.33;;;0.70;;
7410;SDS011;3747;48.628;9.058;2022-12-26T16:01:39;0.57;;;0.57;;
7410;SDS011;3747;48.628;9.058;2022-12-26T16:04:11;0.80;;;0.60;;
7410;SDS011;3747;48.628;9.058;2022-12-26T16:06:48;0.60;;;0.60;;
7410;SDS011;3747;48.628;9.058;2022-12-26T16:09:34;1.53;;;1.07;;
7410;SDS011;3747;48.628;9.058;2022-12-26T16:12:18;1.50;;;0.93;;
7410;SDS011;3747;48.628;9.058;2022-12-26T16:14:48;0.73;;;0.67;;
7410;SDS011;3747;48.628;9.058;2022-12-26T16:17:16;1.17;;;0.77;;
7410;SDS011;3747;48.628;9.058;2022-12-26T16:19:46;1.50;;;0.50;;
7410;SDS011;3747;48.628;9.058;2022-12-26T16:22:14;0.50;;;0.43;;
7410;SDS011;3747;48.628;9.058;2022-12-26T16:25:02;0.70;;;0.60;;
7410;SDS011;3747;48.628;9.058;2022-12-26T16:27:33;0.90;;;0.80;;
7410;SDS011;3747;48.628;9.058;2022-12-26T16:30:04;1.10;;;0.80;;
7410;SDS011;3747;48.628;9.058;2022-12-26T16:32:33;3.13;;;0.80;;
7410;SDS011;3747;48.628;9.058;2022-12-26T16:35:01;0.80;;;0.80;;
7410;SDS011;3747;48.628;9.058;2022-12-26T16:37:30;0.90;;;0.90;;
7410;SDS011;3747;48.628;9.058;2022-12-26T16:40:13;0.67;;;0.60;;
7410;SDS011;3747;48.628;9.058;2022-12-26T16:42:44;1.00;;;0.90;;
7410;SDS011;3747;48.628;9.058;2022-12-26T16:45:20;0.60;;;0.60;;
7410;SDS011;3747;48.628;9.058;2022-12-26T16:47:48;1.27;;;0.70;;
7410;SDS011;3747;48.628;9.058;2022-12-26T16:50:16;0.60;;;0.60;;
7410;SDS011;3747;48.628;9.058;2022-12-26T16:52:45;1.57;;;0.70;;
7410;SDS011;3747;48.628;9.058;2022-12-26T16:55:29;1.13;;;1.03;;
7410;SDS011;3747;48.628;9.058;2022-12-26T16:58:02;8.27;;;5.27;;
7410;SDS011;3747;48.628;9.058;2022-12-26T17:00:37;1.10;;;1.00;;
7410;SDS011;3747;48.628;9.058;2022-12-26T17:03:05;0.77;;;0.77;;
7410;SDS011;3747;48.628;9.058;2022-12-26T17:05:39;1.10;;;0.90;;